sensor_id;sensor_type;location;lat;lon;timestamp;pressure;altitude;pressure_sealevel;temperature;humidity
60874;BME280;46715;40.642;-7.920;2023-05-20T00:00:51;96278.72;;;17.97;35.95
60874;BME280;46715;40.642;-7.920;2023-05-20T00:02:52;96279.66;;;18.01;35.76
60874;BME280;46715;40.642;-7.920;2023-05-20T00:04:53;96285.88;;;17.96;36.16
60874;BME280;46715;40.642;-7.920;2023-05-20T00:06:54;96278.56;;;17.84;36.33
60874;BME280;46715;40.642;-7.920;2023-05-20T00:08:55;96281.03;;;17.81;36.44
60874;BME280;46715;40.642;-7.920;2023-05-20T00:10:56;96273.31;;;17.76;36.54
60874;BME280;46715;40.642;-7.920;2023-05-20T00:12:57;96273.91;;;17.81;36.64
60874;BME280;46715;40.642;-7.920;2023-05-20T00:14:58;96277.47;;;17.77;36.73
60874;BME280;46715;40.642;-7.920;2023-05-20T00:16:59;96271.28;;;17.72;36.69
60874;BME280;46715;40.642;-7.920;2023-05-20T00:19:00;96276.88;;;17.62;37.10
60874;BME280;46715;40.642;-7.920;2023-05-20T00:21:01;96275.00;;;17.63;36.85
60874;BME280;46715;40.642;-7.920;2023-05-20T00:23:02;96281.72;;;17.60;37.04
60874;BME280;46715;40.642;-7.920;2023-05-20T00:25:03;96279.22;;;17.64;36.91
60874;BME280;46715;40.642;-7.920;2023-05-20T00:27:05;96277.66;;;17.54;36.90
60874;BME280;46715;40.642;-7.920;2023-05-20T00:29:06;96282.78;;;17.50;37.16
60874;BME280;46715;40.642;-7.920;2023-05-20T00:31:07;96262.16;;;17.52;36.84
60874;BME280;46715;40.642;-7.920;2023-05-20T00:33:08;96279.53;;;17.53;36.86
60874;BME280;46715;40.642;-7.920;2023-05-20T00:35:08;96280.00;;;17.55;36.74
60874;BME280;46715;40.642;-7.920;2023-05-20T00:37:10;96273.03;;;17.51;37.13
60874;BME280;46715;40.642;-7.920;2023-05-20T00:39:11;96281.56;;;17.48;36.79
60874;BME280;46715;40.642;-7.920;2023-05-20T00:41:12;96277.22;;;17.52;36.95
60874;BME280;46715;40.642;-7.920;2023-05-20T00:43:13;96279.84;;;17.43;36.53
60874;BME280;46715;40.642;-7.920;2023-05-20T00:45:14;96282.94;;;17.28;36.81
60874;BME280;46715;40.642;-7.920;2023-05-20T00:47:16;96285.13;;;17.34;36.37
60874;BME280;46715;40.642;-7.920;2023-05-20T00:49:18;96281.84;;;17.37;36.40
60874;BME280;46715;40.642;-7.920;2023-05-20T00:51:19;96282.31;;;17.31;36.29
60874;BME280;46715;40.642;-7.920;2023-05-20T00:53:21;96285.25;;;17.20;36.79
60874;BME280;46715;40.642;-7.920;2023-05-20T00:55:24;96285.56;;;17.19;36.42
60874;BME280;46715;40.642;-7.920;2023-05-20T00:57:26;96295.97;;;17.24;36.37
60874;BME280;46715;40.642;-7.920;2023-05-20T00:59:27;96293.16;;;17.20;36.51
60874;BME280;46715;40.642;-7.920;2023-05-20T01:01:29;96283.69;;;17.19;36.42
60874;BME280;46715;40.642;-7.920;2023-05-20T01:03:30;96288.81;;;17.16;36.45
60874;BME280;46715;40.642;-7.920;2023-05-20T01:05:31;96284.63;;;17.06;36.68
60874;BME280;46715;40.642;-7.920;2023-05-20T01:07:32;96277.63;;;17.01;36.65
60874;BME280;46715;40.642;-7.920;2023-05-20T01:09:33;96276.25;;;17.04;36.32
60874;BME280;46715;40.642;-7.920;2023-05-20T01:14:07;96264.31;;;16.98;36.25
60874;BME280;46715;40.642;-7.920;2023-05-20T01:16:09;96260.56;;;16.90;36.44
60874;BME280;46715;40.642;-7.920;2023-05-20T01:18:13;96272.47;;;16.87;36.74
60874;BME280;46715;40.642;-7.920;2023-05-20T01:20:18;96272.97;;;16.90;36.54
60874;BME280;46715;40.642;-7.920;2023-05-20T01:22:24;96275.75;;;16.93;36.53
60874;BME280;46715;40.642;-7.920;2023-05-20T01:24:26;96272.78;;;16.86;36.54
60874;BME280;46715;40.642;-7.920;2023-05-20T01:26:26;96272.28;;;16.75;36.44
60874;BME280;46715;40.642;-7.920;2023-05-20T01:28:27;96278.66;;;16.83;36.27
60874;BME280;46715;40.642;-7.920;2023-05-20T01:30:34;96273.09;;;16.84;36.15
60874;BME280;46715;40.642;-7.920;2023-05-20T01:32:42;96267.94;;;16.70;36.16
60874;BME280;46715;40.642;-7.920;2023-05-20T01:34:44;96265.13;;;16.67;35.75
60874;BME280;46715;40.642;-7.920;2023-05-20T01:36:47;96263.13;;;16.64;35.97
60874;BME280;46715;40.642;-7.920;2023-05-20T01:38:48;96275.97;;;16.65;35.84
60874;BME280;46715;40.642;-7.920;2023-05-20T01:40:51;96265.75;;;16.64;35.50
60874;BME280;46715;40.642;-7.920;2023-05-20T01:42:54;96264.50;;;16.61;35.48
60874;BME280;46715;40.642;-7.920;2023-05-20T01:44:55;96264.34;;;16.58;35.58
60874;BME280;46715;40.642;-7.920;2023-05-20T01:46:56;96262.59;;;16.44;35.21
60874;BME280;46715;40.642;-7.920;2023-05-20T01:48:59;96254.88;;;16.48;35.27
60874;BME280;46715;40.642;-7.920;2023-05-20T01:51:00;96262.59;;;16.44;35.78
60874;BME280;46715;40.642;-7.920;2023-05-20T01:53:01;96261.00;;;16.34;35.68
60874;BME280;46715;40.642;-7.920;2023-05-20T01:55:01;96255.94;;;16.38;35.48
60874;BME280;46715;40.642;-7.920;2023-05-20T01:57:03;96260.72;;;16.36;35.51
60874;BME280;46715;40.642;-7.920;2023-05-20T01:59:04;96260.53;;;16.32;35.83
60874;BME280;46715;40.642;-7.920;2023-05-20T02:01:04;96261.44;;;16.28;35.67
60874;BME280;46715;40.642;-7.920;2023-05-20T02:03:05;96260.88;;;16.40;35.85
60874;BME280;46715;40.642;-7.920;2023-05-20T02:05:06;96266.19;;;16.17;35.98
60874;BME280;46715;40.642;-7.920;2023-05-20T02:07:08;96252.16;;;16.22;35.62
60874;BME280;46715;40.642;-7.920;2023-05-20T02:09:09;96254.94;;;16.25;35.42
60874;BME280;46715;40.642;-7.920;2023-05-20T02:11:09;96260.38;;;16.29;35.38
60874;BME280;46715;40.642;-7.920;2023-05-20T02:13:10;96242.19;;;16.10;35.59
60874;BME280;46715;40.642;-7.920;2023-05-20T02:15:12;96243.72;;;16.11;35.76
60874;BME280;46715;40.642;-7.920;2023-05-20T02:17:18;96231.50;;;16.06;35.84
60874;BME280;46715;40.642;-7.920;2023-05-20T02:19:19;96236.88;;;16.01;35.61
60874;BME280;46715;40.642;-7.920;2023-05-20T02:21:23;96249.72;;;16.02;35.42
60874;BME280;46715;40.642;-7.920;2023-05-20T02:23:25;96250.97;;;16.05;35.20
60874;BME280;46715;40.642;-7.920;2023-05-20T02:25:26;96255.41;;;15.96;35.33
60874;BME280;46715;40.642;-7.920;2023-05-20T02:27:27;96253.38;;;15.93;35.41
60874;BME280;46715;40.642;-7.920;2023-05-20T02:29:28;96244.22;;;15.81;35.38
60874;BME280;46715;40.642;-7.920;2023-05-20T02:31:28;96249.50;;;15.67;35.62
60874;BME280;46715;40.642;-7.920;2023-05-20T02:33:29;96257.44;;;15.76;35.21
60874;BME280;46715;40.642;-7.920;2023-05-20T02:35:31;96247.19;;;15.66;35.07
60874;BME280;46715;40.642;-7.920;2023-05-20T02:37:32;96253.66;;;15.68;34.81
60874;BME280;46715;40.642;-7.920;2023-05-20T02:39:33;96241.19;;;15.74;34.88
60874;BME280;46715;40.642;-7.920;2023-05-20T02:41:34;96247.19;;;15.66;35.34
60874;BME280;46715;40.642;-7.920;2023-05-20T02:43:36;96245.50;;;15.70;35.35
60874;BME280;46715;40.642;-7.920;2023-05-20T02:45:37;96246.03;;;15.58;35.36
60874;BME280;46715;40.642;-7.920;2023-05-20T02:47:40;96244.84;;;15.64;35.48
60874;BME280;46715;40.642;-7.920;2023-05-20T02:49:41;96243.53;;;15.53;35.47
60874;BME280;46715;40.642;-7.920;2023-05-20T02:51:42;96239.13;;;15.40;35.88
60874;BME280;46715;40.642;-7.920;2023-05-20T02:53:43;96240.44;;;15.51;35.37
60874;BME280;46715;40.642;-7.920;2023-05-20T02:55:45;96239.34;;;15.52;35.89
60874;BME280;46715;40.642;-7.920;2023-05-20T02:57:50;96223.88;;;15.50;35.79
60874;BME280;46715;40.642;-7.920;2023-05-20T02:59:51;96220.72;;;15.40;35.62
60874;BME280;46715;40.642;-7.920;2023-05-20T03:01:52;96231.22;;;15.40;35.41
60874;BME280;46715;40.642;-7.920;2023-05-20T03:03:53;96232.25;;;15.30;35.55
60874;BME280;46715;40.642;-7.920;2023-05-20T03:05:54;96225.19;;;15.16;36.00
60874;BME280;46715;40.642;-7.920;2023-05-20T03:07:55;96231.91;;;15.09;35.96
60874;BME280;46715;40.642;-7.920;2023-05-20T03:09:57;96227.81;;;15.16;35.41
60874;BME280;46715;40.642;-7.920;2023-05-20T03:12:02;96223.22;;;15.22;35.30
60874;BME280;46715;40.642;-7.920;2023-05-20T03:14:04;96226.06;;;15.12;34.74
60874;BME280;46715;40.642;-7.920;2023-05-20T03:16:06;96231.84;;;15.00;34.54
60874;BME280;46715;40.642;-7.920;2023-05-20T03:18:07;96217.59;;;15.15;34.66
60874;BME280;46715;40.642;-7.920;2023-05-20T03:20:08;96224.50;;;15.11;34.48
60874;BME280;46715;40.642;-7.920;2023-05-20T03:22:11;96232.41;;;15.11;34.00
60874;BME280;46715;40.642;-7.920;2023-05-20T03:24:13;96226.88;;;14.98;34.37
60874;BME280;46715;40.642;-7.920;2023-05-20T03:26:14;96225.06;;;14.85;34.82
60874;BME280;46715;40.642;-7.920;2023-05-20T03:28:15;96237.59;;;14.88;34.52
60874;BME280;46715;40.642;-7.920;2023-05-20T03:30:17;96230.00;;;14.87;34.56
60874;BME280;46715;40.642;-7.920;2023-05-20T03:32:19;96235.38;;;14.81;34.55
60874;BME280;46715;40.642;-7.920;2023-05-20T03:34:20;96225.25;;;14.89;34.39
60874;BME280;46715;40.642;-7.920;2023-05-20T03:36:22;96233.72;;;14.86;34.41
60874;BME280;46715;40.642;-7.920;2023-05-20T03:38:23;96237.13;;;14.86;34.35
60874;BME280;46715;40.642;-7.920;2023-05-20T03:40:25;96240.63;;;14.81;34.42
60874;BME280;46715;40.642;-7.920;2023-05-20T03:42:26;96238.38;;;14.89;34.07
60874;BME280;46715;40.642;-7.920;2023-05-20T03:44:28;96243.56;;;14.80;34.49
60874;BME280;46715;40.642;-7.920;2023-05-20T03:46:29;96232.56;;;14.78;34.69
60874;BME280;46715;40.642;-7.920;2023-05-20T03:48:32;96225.28;;;14.75;35.02
60874;BME280;46715;40.642;-7.920;2023-05-20T03:50:32;96229.94;;;14.64;35.39
60874;BME280;46715;40.642;-7.920;2023-05-20T03:52:35;96229.66;;;14.65;35.29
60874;BME280;46715;40.642;-7.920;2023-05-20T03:54:36;96227.59;;;14.76;35.51
60874;BME280;46715;40.642;-7.920;2023-05-20T03:56:39;96234.59;;;14.67;35.62
60874;BME280;46715;40.642;-7.920;2023-05-20T03:58:41;96234.78;;;14.57;35.94
60874;BME280;46715;40.642;-7.920;2023-05-20T04:00:42;96230.00;;;14.59;36.45
60874;BME280;46715;40.642;-7.920;2023-05-20T04:02:43;96237.88;;;14.59;36.26
60874;BME280;46715;40.642;-7.920;2023-05-20T04:04:47;96231.00;;;14.49;36.28
60874;BME280;46715;40.642;-7.920;2023-05-20T04:06:48;96233.06;;;14.52;36.34
60874;BME280;46715;40.642;-7.920;2023-05-20T04:08:49;96220.09;;;14.56;36.47
60874;BME280;46715;40.642;-7.920;2023-05-20T04:10:50;96227.50;;;14.54;36.48
60874;BME280;46715;40.642;-7.920;2023-05-20T04:12:51;96229.25;;;14.58;36.72
60874;BME280;46715;40.642;-7.920;2023-05-20T04:14:57;96231.19;;;14.53;36.57
60874;BME280;46715;40.642;-7.920;2023-05-20T04:16:58;96245.28;;;14.29;37.56
60874;BME280;46715;40.642;-7.920;2023-05-20T04:18:59;96237.03;;;14.36;37.07
60874;BME280;46715;40.642;-7.920;2023-05-20T04:21:00;96228.88;;;14.37;37.41
60874;BME280;46715;40.642;-7.920;2023-05-20T04:23:01;96223.41;;;14.33;37.73
60874;BME280;46715;40.642;-7.920;2023-05-20T04:25:04;96221.28;;;14.36;37.33
60874;BME280;46715;40.642;-7.920;2023-05-20T04:27:05;96224.00;;;14.30;38.05
60874;BME280;46715;40.642;-7.920;2023-05-20T04:29:07;96221.84;;;14.19;38.14
60874;BME280;46715;40.642;-7.920;2023-05-20T04:31:09;96221.97;;;14.13;38.51
60874;BME280;46715;40.642;-7.920;2023-05-20T04:33:12;96232.25;;;14.10;38.66
60874;BME280;46715;40.642;-7.920;2023-05-20T04:35:14;96227.28;;;14.08;38.83
60874;BME280;46715;40.642;-7.920;2023-05-20T04:37:19;96238.19;;;14.15;39.02
60874;BME280;46715;40.642;-7.920;2023-05-20T04:39:20;96233.13;;;14.05;39.27
60874;BME280;46715;40.642;-7.920;2023-05-20T04:41:25;96231.25;;;13.92;39.48
60874;BME280;46715;40.642;-7.920;2023-05-20T04:43:27;96224.47;;;14.05;39.14
60874;BME280;46715;40.642;-7.920;2023-05-20T04:45:29;96224.28;;;14.01;39.62
60874;BME280;46715;40.642;-7.920;2023-05-20T04:47:31;96217.00;;;13.98;39.65
60874;BME280;46715;40.642;-7.920;2023-05-20T04:49:38;96212.75;;;14.02;39.87
60874;BME280;46715;40.642;-7.920;2023-05-20T04:51:40;96217.97;;;14.02;39.97
60874;BME280;46715;40.642;-7.920;2023-05-20T04:53:43;96220.97;;;13.95;39.99
60874;BME280;46715;40.642;-7.920;2023-05-20T04:55:45;96210.88;;;13.89;40.31
60874;BME280;46715;40.642;-7.920;2023-05-20T04:57:46;96215.22;;;13.93;40.35
60874;BME280;46715;40.642;-7.920;2023-05-20T04:59:46;96205.09;;;13.73;41.08
60874;BME280;46715;40.642;-7.920;2023-05-20T05:01:47;96216.47;;;13.82;41.10
60874;BME280;46715;40.642;-7.920;2023-05-20T05:03:48;96216.56;;;13.77;41.15
60874;BME280;46715;40.642;-7.920;2023-05-20T05:05:49;96210.75;;;13.80;41.21
60874;BME280;46715;40.642;-7.920;2023-05-20T05:07:50;96203.97;;;13.79;41.20
60874;BME280;46715;40.642;-7.920;2023-05-20T05:09:51;96227.22;;;13.67;41.66
60874;BME280;46715;40.642;-7.920;2023-05-20T05:11:52;96202.38;;;13.64;42.05
60874;BME280;46715;40.642;-7.920;2023-05-20T05:13:53;96195.59;;;13.77;41.51
60874;BME280;46715;40.642;-7.920;2023-05-20T05:16:00;96205.50;;;13.66;41.84
60874;BME280;46715;40.642;-7.920;2023-05-20T05:18:03;96205.09;;;13.73;42.03
60874;BME280;46715;40.642;-7.920;2023-05-20T05:20:05;96200.34;;;13.75;41.54
60874;BME280;46715;40.642;-7.920;2023-05-20T05:22:06;96197.06;;;13.83;41.92
60874;BME280;46715;40.642;-7.920;2023-05-20T05:24:07;96187.56;;;13.87;42.03
60874;BME280;46715;40.642;-7.920;2023-05-20T05:26:09;96195.13;;;13.89;41.78
60874;BME280;46715;40.642;-7.920;2023-05-20T05:28:10;96187.38;;;13.97;41.73
60874;BME280;46715;40.642;-7.920;2023-05-20T05:30:10;96194.06;;;13.90;41.83
60874;BME280;46715;40.642;-7.920;2023-05-20T05:32:11;96181.94;;;13.80;42.33
60874;BME280;46715;40.642;-7.920;2023-05-20T05:34:12;96196.50;;;13.86;42.19
60874;BME280;46715;40.642;-7.920;2023-05-20T05:36:14;96191.16;;;13.77;42.69
60874;BME280;46715;40.642;-7.920;2023-05-20T05:38:15;96192.88;;;13.82;42.35
60874;BME280;46715;40.642;-7.920;2023-05-20T05:40:16;96199.09;;;13.86;42.55
60874;BME280;46715;40.642;-7.920;2023-05-20T05:42:17;96198.72;;;13.79;42.76
60874;BME280;46715;40.642;-7.920;2023-05-20T05:44:18;96202.63;;;13.95;42.30
60874;BME280;46715;40.642;-7.920;2023-05-20T05:46:20;96196.78;;;13.98;42.46
60874;BME280;46715;40.642;-7.920;2023-05-20T05:48:21;96194.25;;;13.93;42.32
60874;BME280;46715;40.642;-7.920;2023-05-20T05:50:22;96187.38;;;13.97;42.71
60874;BME280;46715;40.642;-7.920;2023-05-20T05:52:24;96193.28;;;13.89;42.59
60874;BME280;46715;40.642;-7.920;2023-05-20T05:54:26;96191.75;;;13.88;42.72
60874;BME280;46715;40.642;-7.920;2023-05-20T05:56:27;96194.84;;;13.90;42.94
60874;BME280;46715;40.642;-7.920;2023-05-20T05:58:29;96191.91;;;13.78;43.00
60874;BME280;46715;40.642;-7.920;2023-05-20T06:00:30;96200.34;;;13.75;43.61
60874;BME280;46715;40.642;-7.920;2023-05-20T06:02:30;96196.00;;;13.84;43.20
60874;BME280;46715;40.642;-7.920;2023-05-20T06:04:35;96206.22;;;14.00;43.10
60874;BME280;46715;40.642;-7.920;2023-05-20T06:06:36;96198.63;;;13.84;43.42
60874;BME280;46715;40.642;-7.920;2023-05-20T06:08:37;96199.09;;;13.86;43.56
60874;BME280;46715;40.642;-7.920;2023-05-20T06:10:40;96205.38;;;13.71;44.00
60874;BME280;46715;40.642;-7.920;2023-05-20T06:12:40;96193.47;;;13.79;43.77
60874;BME280;46715;40.642;-7.920;2023-05-20T06:14:41;96202.69;;;13.76;43.75
60874;BME280;46715;40.642;-7.920;2023-05-20T06:16:42;96206.06;;;13.77;44.07
60874;BME280;46715;40.642;-7.920;2023-05-20T06:18:47;96200.28;;;13.80;43.90
60874;BME280;46715;40.642;-7.920;2023-05-20T06:20:56;96199.50;;;13.93;43.62
60874;BME280;46715;40.642;-7.920;2023-05-20T06:22:58;96201.84;;;13.95;43.53
60874;BME280;46715;40.642;-7.920;2023-05-20T06:25:06;96205.00;;;13.78;44.23
60874;BME280;46715;40.642;-7.920;2023-05-20T06:27:09;96201.91;;;13.76;44.26
60874;BME280;46715;40.642;-7.920;2023-05-20T06:29:10;96191.16;;;13.77;44.15
60874;BME280;46715;40.642;-7.920;2023-05-20T06:31:11;96198.22;;;13.91;44.44
60874;BME280;46715;40.642;-7.920;2023-05-20T06:33:14;96205.09;;;13.73;44.33
60874;BME280;46715;40.642;-7.920;2023-05-20T06:35:15;96196.00;;;13.84;44.35
60874;BME280;46715;40.642;-7.920;2023-05-20T06:37:16;96198.06;;;13.87;44.10
60874;BME280;46715;40.642;-7.920;2023-05-20T06:39:17;96200.09;;;13.90;44.44
60874;BME280;46715;40.642;-7.920;2023-05-20T06:41:20;96194.25;;;13.79;44.72
60874;BME280;46715;40.642;-7.920;2023-05-20T06:43:24;96186.97;;;13.76;44.63
60874;BME280;46715;40.642;-7.920;2023-05-20T06:45:48;96186.19;;;13.76;44.84
60874;BME280;46715;40.642;-7.920;2023-05-20T06:47:57;96192.00;;;13.87;44.56
60874;BME280;46715;40.642;-7.920;2023-05-20T06:49:59;96193.28;;;14.03;44.20
60874;BME280;46715;40.642;-7.920;2023-05-20T06:52:00;96176.13;;;14.11;44.25
60874;BME280;46715;40.642;-7.920;2023-05-20T06:54:01;96179.03;;;14.23;45.01
60874;BME280;46715;40.642;-7.920;2023-05-20T06:56:02;96175.81;;;14.26;44.77
60874;BME280;46715;40.642;-7.920;2023-05-20T06:58:04;96177.31;;;14.32;44.82
60874;BME280;46715;40.642;-7.920;2023-05-20T07:00:06;96179.63;;;14.20;44.54
60874;BME280;46715;40.642;-7.920;2023-05-20T07:02:12;96178.16;;;14.14;44.78
60874;BME280;46715;40.642;-7.920;2023-05-20T07:04:13;96183.59;;;14.18;44.27
60874;BME280;46715;40.642;-7.920;2023-05-20T07:06:14;96177.38;;;14.27;44.09
60874;BME280;46715;40.642;-7.920;2023-05-20T07:08:15;96170.84;;;14.53;43.88
60874;BME280;46715;40.642;-7.920;2023-05-20T07:10:16;96171.63;;;14.53;43.57
60874;BME280;46715;40.642;-7.920;2023-05-20T07:12:17;96167.94;;;14.54;43.72
60874;BME280;46715;40.642;-7.920;2023-05-20T07:14:18;96164.94;;;14.47;43.56
60874;BME280;46715;40.642;-7.920;2023-05-20T07:16:20;96165.25;;;14.31;43.85
60874;BME280;46715;40.642;-7.920;2023-05-20T07:18:26;96163.09;;;14.33;44.16
60874;BME280;46715;40.642;-7.920;2023-05-20T07:20:29;96157.34;;;14.59;43.42
60874;BME280;46715;40.642;-7.920;2023-05-20T07:22:32;96155.19;;;14.61;43.68
60874;BME280;46715;40.642;-7.920;2023-05-20T07:24:44;96153.81;;;14.78;43.63
60874;BME280;46715;40.642;-7.920;2023-05-20T07:26:44;96169.31;;;15.02;43.02
60874;BME280;46715;40.642;-7.920;2023-05-20T07:28:45;96160.16;;;15.22;42.73
60874;BME280;46715;40.642;-7.920;2023-05-20T07:30:46;96154.25;;;15.16;42.36
60874;BME280;46715;40.642;-7.920;2023-05-20T07:32:56;96145.25;;;15.09;42.32
60874;BME280;46715;40.642;-7.920;2023-05-20T07:34:57;96152.41;;;15.17;42.38
60874;BME280;46715;40.642;-7.920;2023-05-20T07:36:59;96147.22;;;15.26;42.60
60874;BME280;46715;40.642;-7.920;2023-05-20T07:39:00;96156.22;;;15.33;42.22
60874;BME280;46715;40.642;-7.920;2023-05-20T07:41:01;96161.31;;;15.30;41.79
60874;BME280;46715;40.642;-7.920;2023-05-20T07:43:02;96154.91;;;15.45;42.25
60874;BME280;46715;40.642;-7.920;2023-05-20T07:45:03;96150.25;;;15.42;41.81
60874;BME280;46715;40.642;-7.920;2023-05-20T07:47:04;96149.91;;;15.34;42.08
60874;BME280;46715;40.642;-7.920;2023-05-20T07:49:06;96147.63;;;15.73;41.32
60874;BME280;46715;40.642;-7.920;2023-05-20T07:51:08;96138.22;;;16.12;40.83
60874;BME280;46715;40.642;-7.920;2023-05-20T07:53:09;96142.47;;;16.40;39.62
60874;BME280;46715;40.642;-7.920;2023-05-20T07:55:12;96143.13;;;16.72;39.78
60874;BME280;46715;40.642;-7.920;2023-05-20T07:57:19;96142.28;;;16.45;39.55
60874;BME280;46715;40.642;-7.920;2023-05-20T07:59:20;96134.91;;;16.82;39.33
60874;BME280;46715;40.642;-7.920;2023-05-20T08:01:23;96133.84;;;16.92;38.80
60874;BME280;46715;40.642;-7.920;2023-05-20T08:03:24;96136.63;;;17.13;38.59
60874;BME280;46715;40.642;-7.920;2023-05-20T08:05:40;96138.25;;;17.52;37.64
60874;BME280;46715;40.642;-7.920;2023-05-20T08:07:41;96132.59;;;17.80;37.77
60874;BME280;46715;40.642;-7.920;2023-05-20T08:09:42;96129.25;;;18.31;36.30
60874;BME280;46715;40.642;-7.920;2023-05-20T08:11:43;96129.59;;;18.50;35.55
60874;BME280;46715;40.642;-7.920;2023-05-20T08:13:44;96131.78;;;18.69;35.63
60874;BME280;46715;40.642;-7.920;2023-05-20T08:15:46;96117.06;;;18.89;35.30
60874;BME280;46715;40.642;-7.920;2023-05-20T08:17:49;96115.75;;;18.74;35.48
60874;BME280;46715;40.642;-7.920;2023-05-20T08:19:50;96111.50;;;18.82;35.28
60874;BME280;46715;40.642;-7.920;2023-05-20T08:21:51;96106.88;;;19.34;34.75
60874;BME280;46715;40.642;-7.920;2023-05-20T08:23:53;96107.44;;;19.39;34.54
60874;BME280;46715;40.642;-7.920;2023-05-20T08:25:54;96104.22;;;19.92;33.21
60874;BME280;46715;40.642;-7.920;2023-05-20T08:28:00;96102.75;;;20.07;32.87
60874;BME280;46715;40.642;-7.920;2023-05-20T08:30:04;96100.22;;;20.23;32.40
60874;BME280;46715;40.642;-7.920;2023-05-20T08:32:08;96093.50;;;20.66;32.05
60874;BME280;46715;40.642;-7.920;2023-05-20T08:34:09;96085.63;;;21.26;31.09
60874;BME280;46715;40.642;-7.920;2023-05-20T08:36:10;96082.66;;;20.84;31.25
60874;BME280;46715;40.642;-7.920;2023-05-20T08:38:11;96095.69;;;20.64;31.50
60874;BME280;46715;40.642;-7.920;2023-05-20T08:40:12;96086.97;;;20.23;32.34
60874;BME280;46715;40.642;-7.920;2023-05-20T08:42:14;96094.06;;;19.23;33.10
60874;BME280;46715;40.642;-7.920;2023-05-20T08:44:16;96094.88;;;19.03;33.64
60874;BME280;46715;40.642;-7.920;2023-05-20T08:46:19;96083.41;;;18.78;34.69
60874;BME280;46715;40.642;-7.920;2023-05-20T08:48:25;96077.50;;;19.02;34.88
60874;BME280;46715;40.642;-7.920;2023-05-20T08:50:27;96077.22;;;19.40;33.91
60874;BME280;46715;40.642;-7.920;2023-05-20T08:52:29;96084.53;;;19.68;33.75
60874;BME280;46715;40.642;-7.920;2023-05-20T08:54:45;96068.56;;;20.14;32.42
60874;BME280;46715;40.642;-7.920;2023-05-20T08:56:46;96086.09;;;20.59;32.49
60874;BME280;46715;40.642;-7.920;2023-05-20T08:58:49;96072.50;;;20.33;32.94
60874;BME280;46715;40.642;-7.920;2023-05-20T09:00:50;96070.38;;;20.51;31.86
60874;BME280;46715;40.642;-7.920;2023-05-20T09:02:52;96080.19;;;20.91;31.64
60874;BME280;46715;40.642;-7.920;2023-05-20T09:04:54;96072.97;;;21.20;30.91
60874;BME280;46715;40.642;-7.920;2023-05-20T09:06:54;96088.59;;;21.53;29.99
60874;BME280;46715;40.642;-7.920;2023-05-20T09:08:55;96072.47;;;21.46;29.76
60874;BME280;46715;40.642;-7.920;2023-05-20T09:10:58;96087.41;;;22.18;29.38
60874;BME280;46715;40.642;-7.920;2023-05-20T09:13:05;96097.16;;;21.62;29.52
60874;BME280;46715;40.642;-7.920;2023-05-20T09:15:07;96095.81;;;21.40;30.03
60874;BME280;46715;40.642;-7.920;2023-05-20T09:17:09;96083.03;;;21.74;30.28
60874;BME280;46715;40.642;-7.920;2023-05-20T09:19:10;96093.16;;;22.20;29.31
60874;BME280;46715;40.642;-7.920;2023-05-20T09:21:11;96092.88;;;22.61;28.76
60874;BME280;46715;40.642;-7.920;2023-05-20T09:23:12;96091.50;;;22.31;28.39
60874;BME280;46715;40.642;-7.920;2023-05-20T09:25:13;96087.66;;;21.93;29.40
60874;BME280;46715;40.642;-7.920;2023-05-20T09:27:15;96086.69;;;22.96;28.56
60874;BME280;46715;40.642;-7.920;2023-05-20T09:29:17;96084.91;;;23.20;28.03
60874;BME280;46715;40.642;-7.920;2023-05-20T09:31:24;96082.53;;;23.61;27.10
60874;BME280;46715;40.642;-7.920;2023-05-20T09:33:29;96083.78;;;23.44;27.47
60874;BME280;46715;40.642;-7.920;2023-05-20T09:35:34;96080.34;;;23.90;27.19
60874;BME280;46715;40.642;-7.920;2023-05-20T09:37:37;96074.09;;;24.05;27.28
60874;BME280;46715;40.642;-7.920;2023-05-20T09:39:48;96075.91;;;23.97;27.41
60874;BME280;46715;40.642;-7.920;2023-05-20T09:41:56;96073.38;;;24.08;27.07
60874;BME280;46715;40.642;-7.920;2023-05-20T09:44:05;96083.16;;;22.49;28.51
60874;BME280;46715;40.642;-7.920;2023-05-20T09:46:07;96068.41;;;22.16;29.56
60874;BME280;46715;40.642;-7.920;2023-05-20T09:48:08;96070.94;;;22.28;29.44
60874;BME280;46715;40.642;-7.920;2023-05-20T09:50:11;96078.41;;;22.23;29.74
60874;BME280;46715;40.642;-7.920;2023-05-20T09:52:14;96066.66;;;22.59;29.02
60874;BME280;46715;40.642;-7.920;2023-05-20T09:56:22;96073.53;;;21.89;30.02
60874;BME280;46715;40.642;-7.920;2023-05-20T09:58:24;96073.78;;;21.52;31.32
60874;BME280;46715;40.642;-7.920;2023-05-20T10:00:25;96080.28;;;21.87;30.83
60874;BME280;46715;40.642;-7.920;2023-05-20T10:02:27;96065.59;;;22.09;30.49
60874;BME280;46715;40.642;-7.920;2023-05-20T10:04:29;96064.44;;;22.61;30.12
60874;BME280;46715;40.642;-7.920;2023-05-20T10:11:20;96057.22;;;22.42;30.33
60874;BME280;46715;40.642;-7.920;2023-05-20T10:13:42;96056.94;;;22.47;29.85
60874;BME280;46715;40.642;-7.920;2023-05-20T10:19:59;96049.16;;;24.21;27.65
60874;BME280;46715;40.642;-7.920;2023-05-20T10:22:03;96062.13;;;24.22;28.15
60874;BME280;46715;40.642;-7.920;2023-05-20T10:24:08;96052.06;;;24.69;27.94
60874;BME280;46715;40.642;-7.920;2023-05-20T10:26:10;96044.84;;;25.07;27.24
60874;BME280;46715;40.642;-7.920;2023-05-20T10:28:10;96031.84;;;24.34;27.14
60874;BME280;46715;40.642;-7.920;2023-05-20T10:30:16;96047.78;;;23.77;28.05
60874;BME280;46715;40.642;-7.920;2023-05-20T10:32:28;96047.44;;;24.05;28.63
60874;BME280;46715;40.642;-7.920;2023-05-20T10:34:46;96041.03;;;24.10;27.90
60874;BME280;46715;40.642;-7.920;2023-05-20T10:38:57;96050.47;;;23.77;27.89
60874;BME280;46715;40.642;-7.920;2023-05-20T10:41:07;96046.88;;;23.65;28.73
60874;BME280;46715;40.642;-7.920;2023-05-20T10:43:10;96049.94;;;23.91;29.03
60874;BME280;46715;40.642;-7.920;2023-05-20T10:45:11;96052.06;;;24.08;28.20
60874;BME280;46715;40.642;-7.920;2023-05-20T10:47:12;96042.78;;;24.25;27.69
60874;BME280;46715;40.642;-7.920;2023-05-20T10:49:17;96048.88;;;24.26;28.07
60874;BME280;46715;40.642;-7.920;2023-05-20T10:51:19;96034.91;;;24.36;28.18
60874;BME280;46715;40.642;-7.920;2023-05-20T10:53:22;96041.41;;;23.58;28.68
60874;BME280;46715;40.642;-7.920;2023-05-20T10:55:23;96026.31;;;23.16;28.90